Time;durP1;ratioP1;P1;durP2;ratioP2;P2;SDS_P1;SDS_P2;PMS_P1;PMS_P2;Temp;Humidity;BMP_temperature;BMP_pressure;BME280_temperature;BME280_humidity;BME280_pressure;Samples;Min_cycle;Max_cycle;Signal;HPM_P1;HPM_P2
2021/08/22 00:00:13;;;;;;;10.25;8.88;;;;;;;16.17;83.84;100376.00;1814477;79;21485;-88
2021/08/22 00:02:39;;;;;;;9.78;7.97;;;;;;;16.17;83.94;100378.66;1814239;78;20958;-89
2021/08/22 00:05:06;;;;;;;11.60;9.05;;;;;;;16.18;83.88;100369.18;1814451;79;20997;-88
2021/08/22 00:07:32;;;;;;;11.40;8.90;;;;;;;16.19;84.00;100372.70;1814189;79;20968;-88
2021/08/22 00:09:58;;;;;;;10.32;8.70;;;;;;;16.20;83.90;100371.71;1814519;78;20978;-88
2021/08/22 00:12:24;;;;;;;10.85;8.90;;;;;;;16.19;84.07;100366.05;1814104;78;21013;-88
2021/08/22 00:14:50;;;;;;;12.25;8.88;;;;;;;16.22;83.99;100370.22;1814580;79;21438;-88
2021/08/22 00:17:17;;;;;;;10.70;8.90;;;;;;;16.22;83.86;100364.89;1814155;79;20986;-88
2021/08/22 00:19:43;;;;;;;11.22;8.78;;;;;;;16.22;83.94;100372.39;1814546;79;21019;-88
2021/08/22 00:22:08;;;;;;;9.98;8.33;;;;;;;16.22;83.99;100368.39;1814247;79;20916;-88
2021/08/22 00:24:34;;;;;;;10.45;9.13;;;;;;;16.23;84.14;100369.26;1814418;79;21452;-87
2021/08/22 00:27:00;;;;;;;11.38;9.63;;;;;;;16.23;83.93;100360.77;1814182;79;21315;-88
2021/08/22 00:29:26;;;;;;;10.82;8.68;;;;;;;16.24;83.97;100354.45;1814386;79;20939;-88
2021/08/22 00:31:52;;;;;;;10.05;8.88;;;;;;;16.25;84.22;100353.95;1814360;79;20990;-88
2021/08/22 00:34:18;;;;;;;9.68;8.55;;;;;;;16.25;84.08;100350.80;1814480;79;21487;-88
2021/08/22 00:36:44;;;;;;;11.08;8.60;;;;;;;16.25;84.09;100350.80;1814385;79;20968;-88
2021/08/22 00:39:10;;;;;;;13.15;10.58;;;;;;;16.24;84.09;100347.80;1814523;79;21021;-88
2021/08/22 00:41:39;;;;;;;12.07;9.20;;;;;;;16.25;84.11;100352.13;1814377;79;21478;-88
2021/08/22 00:44:06;;;;;;;10.75;9.65;;;;;;;16.25;84.20;100353.95;1814432;78;20946;-88
2021/08/22 00:46:35;;;;;;;10.98;9.40;;;;;;;16.25;84.30;100352.13;1813853;79;20993;-88
2021/08/22 00:49:01;;;;;;;10.25;8.85;;;;;;;16.24;84.24;100346.47;1813423;79;21521;-88
2021/08/22 00:51:27;;;;;;;11.00;9.85;;;;;;;16.24;84.24;100350.45;1814170;78;20995;-88
2021/08/22 00:53:53;;;;;;;12.25;10.40;;;;;;;16.26;84.39;100350.33;1814370;78;20969;-89
2021/08/22 00:56:19;;;;;;;11.38;9.05;;;;;;;16.26;84.39;100343.67;1814538;79;20980;-89
2021/08/22 00:58:46;;;;;;;10.60;9.10;;;;;;;16.25;84.52;100342.80;1814445;78;20955;-89
2021/08/22 01:01:25;;;;;;;10.18;9.08;;;;;;;16.25;84.40;100345.47;1814436;79;21422;-88
2021/08/22 01:04:19;;;;;;;10.72;9.63;;;;;;;16.25;84.46;100342.80;1814425;79;21036;-89
2021/08/22 01:07:22;;;;;;;11.48;9.83;;;;;;;16.26;84.59;100342.34;1812629;79;21000;-89
2021/08/22 01:09:51;;;;;;;13.35;9.33;;;;;;;16.27;84.63;100355.48;1813400;78;21012;-89
2021/08/22 01:12:43;;;;;;;12.00;9.38;;;;;;;16.26;84.64;100349.00;1814256;79;20991;-89
2021/08/22 01:15:12;;;;;;;10.50;9.40;;;;;;;16.26;84.63;100344.50;1814406;79;21061;-90
2021/08/22 01:17:46;;;;;;;10.25;9.25;;;;;;;16.25;84.58;100344.64;1814231;79;20940;-88
2021/08/22 01:20:44;;;;;;;12.33;9.43;;;;;;;16.26;84.67;100341.84;1814547;78;20993;-90
2021/08/22 01:23:12;;;;;;;11.88;8.63;;;;;;;16.26;84.69;100334.35;1807957;78;21038;-89
2021/08/22 01:25:40;;;;;;;16.25;9.83;;;;;;;16.25;84.74;100333.48;1780802;80;21047;-90
2021/08/22 01:28:07;;;;;;;9.65;8.68;;;;;;;16.26;84.70;100329.03;1780479;80;21009;-90
2021/08/22 01:30:44;;;;;;;9.65;8.68;;;;;;;16.23;84.66;100327.98;1780915;80;21512;-90
2021/08/22 01:33:13;;;;;;;12.13;9.73;;;;;;;16.22;84.65;100332.45;1780943;80;20991;-90
2021/08/22 01:35:39;;;;;;;9.38;7.92;;;;;;;16.21;84.84;100333.95;1781235;80;20987;-89
2021/08/22 01:38:08;;;;;;;10.40;9.38;;;;;;;16.19;85.00;100330.11;1780830;80;20999;-90
2021/08/22 01:40:35;;;;;;;10.80;9.55;;;;;;;16.18;84.80;100328.41;1780809;80;20979;-88
2021/08/22 01:43:04;;;;;;;11.83;9.73;;;;;;;16.13;84.77;100316.89;1780899;80;20999;-89
2021/08/22 01:45:32;;;;;;;9.65;8.48;;;;;;;16.12;84.88;100321.87;1781158;80;21612;-90
2021/08/22 01:48:00;;;;;;;13.10;9.48;;;;;;;16.11;85.00;100315.35;1780669;80;21043;-89
2021/08/22 01:50:27;;;;;;;11.38;8.58;;;;;;;16.09;85.13;100327.49;1780544;80;21050;-89
2021/08/22 01:52:59;;;;;;;9.10;8.05;;;;;;;16.06;85.01;100326.95;1780609;80;21010;-90
2021/08/22 01:55:25;;;;;;;12.25;9.25;;;;;;;16.02;85.01;100319.72;1780542;80;21061;-90
2021/08/22 01:57:51;;;;;;;9.95;8.75;;;;;;;16.00;85.10;100324.87;1780613;80;21457;-90
2021/08/22 02:00:18;;;;;;;10.20;8.33;;;;;;;15.97;85.12;100323.83;1780579;80;21087;-90
2021/08/22 02:03:15;;;;;;;11.40;8.93;;;;;;;15.94;85.20;100318.30;1780541;80;20988;-90
2021/08/22 02:05:41;;;;;;;11.55;9.53;;;;;;;15.90;85.19;100324.41;1780688;80;22205;-89
2021/08/22 02:08:16;;;;;;;10.70;8.90;;;;;;;15.87;85.13;100320.70;1780554;80;21011;-89
2021/08/22 02:10:53;;;;;;;11.20;9.40;;;;;;;15.85;85.17;100319.17;1780683;80;21023;-89
2021/08/22 02:13:24;;;;;;;9.88;8.53;;;;;;;15.80;85.17;100324.10;1740436;81;21026;-89
2021/08/22 02:15:55;;;;;;;9.80;8.80;;;;;;;15.77;85.25;100329.22;1743513;81;21474;-89
2021/08/22 02:18:23;;;;;;;10.05;9.05;;;;;;;15.75;85.35;100327.67;1743528;81;21553;-89
2021/08/22 02:20:49;;;;;;;10.98;9.25;;;;;;;15.71;85.44;100316.48;1743421;81;21082;-89
2021/08/22 02:23:17;;;;;;;11.97;9.70;;;;;;;15.68;85.49;100316.77;1743379;81;20980;-89
2021/08/22 02:25:44;;;;;;;11.30;9.73;;;;;;;15.64;85.39;100317.53;1743446;81;21042;-89
2021/08/22 02:28:10;;;;;;;10.80;9.15;;;;;;;15.60;85.46;100308.17;1743204;81;21060;-89
2021/08/22 02:30:38;;;;;;;12.33;9.00;;;;;;;15.58;85.63;100307.45;1743450;81;21063;-89
2021/08/22 02:33:06;;;;;;;11.18;8.60;;;;;;;15.55;85.63;100306.41;1743294;81;21070;-89
2021/08/22 02:35:33;;;;;;;10.08;9.08;;;;;;;15.52;85.72;100300.05;1743468;81;21514;-89
2021/08/22 02:37:59;;;;;;;11.48;9.30;;;;;;;15.50;85.68;100302.03;1743621;81;20949;-89
2021/08/22 02:40:25;;;;;;;13.18;9.28;;;;;;;15.47;85.74;100309.80;1743783;81;21007;-90
2021/08/22 02:42:52;;;;;;;10.80;9.65;;;;;;;15.43;85.55;100307.55;1743758;81;21012;-90
2021/08/22 02:45:18;;;;;;;11.25;9.05;;;;;;;15.38;85.60;100301.34;1743819;81;21012;-90
2021/08/22 02:47:44;;;;;;;11.93;10.18;;;;;;;15.35;85.63;100298.97;1743597;82;21485;-90
2021/08/22 02:50:10;;;;;;;12.55;9.10;;;;;;;15.32;85.70;100301.08;1743942;81;20999;-90
2021/08/22 02:52:36;;;;;;;10.25;8.98;;;;;;;15.28;85.73;100297.87;1780356;80;21042;-89
2021/08/22 02:55:03;;;;;;;10.43;9.23;;;;;;;15.28;85.75;100291.72;1780912;80;21019;-89
2021/08/22 02:57:29;;;;;;;12.73;9.45;;;;;;;15.25;85.89;100288.35;1780667;80;21493;-89
2021/08/22 02:59:55;;;;;;;10.10;8.60;;;;;;;15.23;85.81;100289.47;1780997;80;20978;-89
2021/08/22 03:02:21;;;;;;;11.35;10.13;;;;;;;15.18;85.84;100291.23;1780810;80;21007;-89
2021/08/22 03:04:47;;;;;;;10.38;9.28;;;;;;;15.14;85.69;100290.34;1780882;80;21428;-89
2021/08/22 03:07:13;;;;;;;10.75;9.08;;;;;;;15.07;85.80;100278.12;1780694;80;21007;-90
2021/08/22 03:09:39;;;;;;;12.10;9.73;;;;;;;15.10;85.79;100287.59;1781062;80;21484;-89
2021/08/22 03:12:06;;;;;;;10.55;9.18;;;;;;;15.06;86.03;100288.37;1780745;80;21025;-89
2021/08/22 03:14:33;;;;;;;10.65;9.53;;;;;;;15.00;85.89;100292.45;1780983;80;21450;-89
2021/08/22 03:16:59;;;;;;;11.22;9.80;;;;;;;14.97;86.11;100287.42;1780712;80;21098;-90
2021/08/22 03:19:25;;;;;;;12.33;9.50;;;;;;;14.96;86.21;100284.39;1780885;80;21458;-89
2021/08/22 03:21:50;;;;;;;11.88;10.25;;;;;;;14.94;86.15;100283.71;1780781;80;21060;-89
2021/08/22 03:24:17;;;;;;;11.63;10.20;;;;;;;14.92;86.26;100286.98;1780874;80;21030;-89
2021/08/22 03:26:43;;;;;;;10.93;9.83;;;;;;;14.91;86.43;100287.98;1780624;80;21046;-89
2021/08/22 03:29:09;;;;;;;12.37;9.38;;;;;;;14.89;86.52;100287.27;1780856;80;21047;-89
2021/08/22 03:31:35;;;;;;;11.22;10.13;;;;;;;14.89;86.72;100291.75;1780774;80;20990;-89
2021/08/22 03:34:01;;;;;;;10.35;9.25;;;;;;;14.86;86.70;100288.04;1780783;80;21453;-89
2021/08/22 03:36:27;;;;;;;11.20;9.78;;;;;;;14.84;86.81;100284.20;1780941;80;20983;-89
2021/08/22 03:38:53;;;;;;;10.00;9.00;;;;;;;14.84;86.85;100280.69;1780723;80;21552;-90
2021/08/22 03:41:19;;;;;;;12.30;10.50;;;;;;;14.83;86.91;100283.84;1780837;80;21000;-89
2021/08/22 03:43:44;;;;;;;11.97;10.48;;;;;;;14.83;87.00;100277.69;1780884;80;20983;-89
2021/08/22 03:46:10;;;;;;;11.95;9.80;;;;;;;14.82;87.04;100276.86;1780726;80;21066;-89
2021/08/22 03:48:36;;;;;;;13.65;10.32;;;;;;;;;;1780665;80;21490;-89
2021/08/22 03:51:02;;;;;;;10.78;9.60;;;;;;;14.81;87.03;100284.48;1759088;80;21055;-89
2021/08/22 03:53:28;;;;;;;12.98;10.95;;;;;;;14.80;87.13;100283.28;1780861;80;21505;-89
2021/08/22 03:55:54;;;;;;;12.20;10.30;;;;;;;14.78;87.31;100289.58;1780856;80;21070;-89
2021/08/22 03:58:20;;;;;;;12.47;10.50;;;;;;;14.77;87.17;100282.59;1780817;80;21038;-89
2021/08/22 04:00:46;;;;;;;11.22;10.03;;;;;;;14.77;87.21;100275.95;1780893;80;21018;-89
2021/08/22 04:03:12;;;;;;;13.30;10.85;;;;;;;14.76;87.26;100274.26;1780640;80;21002;-89
2021/08/22 04:05:38;;;;;;;11.08;9.15;;;;;;;14.63;87.42;100253.78;1780786;80;21019;-89
2021/08/22 04:08:04;;;;;;;15.55;11.22;;;;;;;14.63;87.42;100253.78;1780836;80;21457;-89
2021/08/22 04:10:30;;;;;;;12.85;11.40;;;;;;;14.76;87.28;100273.42;1780987;80;20975;-89
2021/08/22 04:12:57;;;;;;;13.53;11.55;;;;;;;14.74;87.27;100274.91;1780881;80;21513;-89
2021/08/22 04:15:24;;;;;;;12.30;10.03;;;;;;;14.74;87.35;100279.35;1781034;80;21011;-89
2021/08/22 04:17:51;;;;;;;11.75;10.53;;;;;;;14.73;87.39;100274.53;1780887;80;21035;-90
2021/08/22 04:20:17;;;;;;;14.03;11.95;;;;;;;14.73;87.50;100281.67;1781067;80;21493;-89
2021/08/22 04:22:43;;;;;;;13.48;10.75;;;;;;;14.73;87.53;100277.69;1780944;80;21042;-89
2021/08/22 04:25:11;;;;;;;14.55;12.47;;;;;;;14.74;87.54;100275.38;1781052;80;21458;-89
2021/08/22 04:27:41;;;;;;;11.65;10.48;;;;;;;14.75;87.58;100275.74;1780864;80;21026;-89
2021/08/22 04:30:12;;;;;;;14.53;10.18;;;;;;;14.76;87.76;100278.25;1780811;80;21489;-89
2021/08/22 04:32:39;;;;;;;15.63;10.97;;;;;;;14.77;87.78;100281.73;1781122;80;20980;-89
2021/08/22 04:35:06;;;;;;;14.73;10.75;;;;;;;14.78;88.02;100278.13;1781040;80;21445;-89
2021/08/22 04:37:32;;;;;;;13.35;10.48;;;;;;;14.78;87.96;100276.80;1781026;80;21042;-90
2021/08/22 04:39:59;;;;;;;13.95;11.03;;;;;;;14.79;87.95;100267.84;1781120;80;21470;-89
2021/08/22 04:42:25;;;;;;;14.00;11.30;;;;;;;14.81;88.09;100269.88;1780943;80;21542;-89
2021/08/22 04:44:52;;;;;;;13.48;11.38;;;;;;;14.82;88.25;100268.05;1781194;80;21038;-89
2021/08/22 04:47:17;;;;;;;14.60;12.25;;;;;;;14.83;88.33;100274.54;1781005;80;21486;-89
2021/08/22 04:49:43;;;;;;;15.40;12.43;;;;;;;14.85;88.52;100274.41;1780997;80;21018;-90
2021/08/22 04:52:09;;;;;;;14.23;12.73;;;;;;;14.88;88.71;100271.48;1780851;80;20975;-89
2021/08/22 04:54:35;;;;;;;16.27;12.03;;;;;;;14.89;88.83;100270.00;1781185;80;21087;-89
2021/08/22 04:57:01;;;;;;;14.58;12.82;;;;;;;14.92;89.01;100273.70;1780931;80;21003;-90
2021/08/22 04:59:27;;;;;;;14.10;11.78;;;;;;;14.94;89.24;100270.42;1781201;80;20999;-90
2021/08/22 05:01:53;;;;;;;13.85;12.15;;;;;;;14.97;88.96;100276.80;1780813;80;21102;-90
2021/08/22 05:04:19;;;;;;;14.98;12.28;;;;;;;15.00;89.01;100277.84;1781203;80;21008;-90
2021/08/22 05:06:45;;;;;;;13.88;11.10;;;;;;;15.06;89.10;100279.56;1780895;80;21043;-90
2021/08/22 05:09:11;;;;;;;13.50;12.00;;;;;;;15.10;89.20;100281.79;1781198;80;20979;-90
2021/08/22 05:11:37;;;;;;;15.15;12.20;;;;;;;15.15;89.39;100284.04;1780879;80;21054;-90
2021/08/22 05:14:03;;;;;;;13.75;12.05;;;;;;;15.18;89.35;100280.61;1781091;80;21466;-90
2021/08/22 05:16:29;;;;;;;13.83;12.35;;;;;;;15.22;89.52;100286.47;1781121;80;21015;-90
2021/08/22 05:18:55;;;;;;;14.00;12.20;;;;;;;15.25;89.43;100282.20;1781079;80;21453;-90
2021/08/22 05:21:21;;;;;;;14.35;12.20;;;;;;;15.30;89.61;100289.73;1781128;80;20975;-90
2021/08/22 05:23:47;;;;;;;13.78;12.28;;;;;;;15.33;89.52;100287.63;1781071;80;20979;-90
2021/08/22 05:26:14;;;;;;;14.55;13.05;;;;;;;15.39;89.39;100286.23;1780823;80;21525;-90
2021/08/22 05:28:39;;;;;;;14.60;12.95;;;;;;;15.44;89.70;100281.33;1781054;80;20991;-90
2021/08/22 05:31:05;;;;;;;14.75;11.80;;;;;;;15.49;89.67;100279.90;1781025;80;21520;-90
2021/08/22 05:33:33;;;;;;;14.20;11.78;;;;;;;15.54;89.57;100281.31;1780974;80;21002;-91
2021/08/22 05:36:16;;;;;;;14.05;12.45;;;;;;;15.59;89.63;100283.03;1781044;80;21023;-90
2021/08/22 05:38:42;;;;;;;13.43;11.30;;;;;;;15.65;89.76;100283.78;1757561;80;21019;-90
2021/08/22 05:41:08;;;;;;;13.18;11.80;;;;;;;15.71;89.80;100286.73;1780968;80;20968;-90
2021/08/22 05:43:34;;;;;;;13.03;11.63;;;;;;;15.77;89.73;100276.01;1781026;80;20987;-90
2021/08/22 05:46:00;;;;;;;13.15;11.75;;;;;;;15.82;89.36;100276.89;1781145;80;21529;-91
2021/08/22 05:48:26;;;;;;;15.48;12.55;;;;;;;15.85;89.27;100276.10;1780675;80;20984;-91
2021/08/22 05:50:52;;;;;;;13.20;10.68;;;;;;;15.89;89.55;100270.86;1781090;80;21031;-91
2021/08/22 05:53:19;;;;;;;13.78;11.10;;;;;;;15.95;89.71;100265.42;1780704;80;21299;-91
2021/08/22 05:55:45;;;;;;;14.00;12.25;;;;;;;16.00;89.74;100263.16;1781199;80;21086;-91
2021/08/22 05:58:11;;;;;;;15.20;11.57;;;;;;;16.07;90.03;100262.08;1781081;80;21014;-91
2021/08/22 06:00:38;;;;;;;14.33;11.95;;;;;;;16.14;90.21;100261.83;1781196;80;21062;-91
2021/08/22 06:03:04;;;;;;;18.50;13.13;;;;;;;16.21;90.17;100256.24;1780685;80;21350;-91
2021/08/22 06:05:30;;;;;;;13.65;11.75;;;;;;;16.27;90.03;100267.63;1781056;80;21007;-91
2021/08/22 06:07:56;;;;;;;13.93;12.18;;;;;;;16.32;89.93;100265.84;1781054;80;20979;-91
2021/08/22 06:10:22;;;;;;;12.85;11.30;;;;;;;16.39;90.06;100269.60;1781143;80;21011;-91
2021/08/22 06:12:48;;;;;;;13.78;12.20;;;;;;;16.44;90.03;100271.30;1781018;80;21478;-91
2021/08/22 06:15:14;;;;;;;13.72;12.33;;;;;;;16.50;89.90;100268.04;1781211;80;21014;-91
2021/08/22 06:17:40;;;;;;;12.03;10.68;;;;;;;16.55;89.86;100266.24;1780902;80;20960;-91
2021/08/22 06:20:07;;;;;;;11.10;9.83;;;;;;;16.59;89.64;100264.48;1781020;80;20995;-91
2021/08/22 06:22:33;;;;;;;11.68;10.48;;;;;;;16.62;89.32;100265.50;1781041;80;21003;-91
2021/08/22 06:24:59;;;;;;;13.15;9.93;;;;;;;16.65;89.41;100261.70;1781013;80;21038;-91
2021/08/22 06:27:25;;;;;;;12.07;10.60;;;;;;;16.69;89.42;100264.41;1780930;80;20979;-91
2021/08/22 06:29:51;;;;;;;11.20;10.00;;;;;;;16.73;89.32;100269.77;1781280;80;21509;-91
2021/08/22 06:32:17;;;;;;;11.48;10.28;;;;;;;16.78;89.43;100275.52;1780924;80;20980;-91
2021/08/22 06:34:43;;;;;;;12.13;9.83;;;;;;;16.83;89.39;100274.55;1781173;80;21003;-91
2021/08/22 06:37:09;;;;;;;12.60;11.30;;;;;;;16.91;89.47;100270.27;1780997;80;21007;-92
2021/08/22 06:39:41;;;;;;;12.73;10.82;;;;;;;16.97;89.72;100267.83;1780929;80;21006;-92
2021/08/22 06:42:05;;;;;;;12.25;10.40;;;;;;;17.05;89.86;100265.75;1778265;80;21031;-92
2021/08/22 06:44:33;;;;;;;10.78;9.68;;;;;;;17.11;89.21;100253.14;1781030;80;20990;-91
2021/08/22 06:46:59;;;;;;;10.58;9.48;;;;;;;17.15;88.97;100258.48;1780723;80;21090;-91
2021/08/22 06:49:25;;;;;;;14.07;9.55;;;;;;;17.20;88.74;100253.51;1781015;80;21073;-91
2021/08/22 06:51:51;;;;;;;11.75;8.88;;;;;;;17.26;88.58;100255.55;1780985;80;21065;-92
2021/08/22 06:54:17;;;;;;;12.37;9.98;;;;;;;17.32;88.63;100255.44;1781213;80;20999;-92
2021/08/22 06:56:43;;;;;;;11.38;9.08;;;;;;;17.39;88.50;100260.48;1780822;80;20999;-91
2021/08/22 06:59:09;;;;;;;11.93;10.32;;;;;;;17.45;88.31;100263.86;1781000;80;21473;-91
2021/08/22 07:01:36;;;;;;;12.20;9.83;;;;;;;17.53;88.62;100254.55;1781052;80;21003;-91
2021/08/22 07:04:02;;;;;;;10.98;9.60;;;;;;;17.59;88.58;100257.92;1780905;80;21034;-91
2021/08/22 07:06:28;;;;;;;12.53;8.63;;;;;;;17.70;88.07;100251.50;1781048;80;21047;-92
2021/08/22 07:08:54;;;;;;;11.70;8.55;;;;;;;17.79;87.98;100253.72;1781100;80;21065;-92
2021/08/22 07:11:20;;;;;;;9.88;8.88;;;;;;;17.86;87.65;100246.74;1781109;80;20995;-91
2021/08/22 07:13:45;;;;;;;10.50;7.47;;;;;;;17.95;87.97;100251.13;1781051;80;21019;-92
2021/08/22 07:16:11;;;;;;;9.28;7.92;;;;;;;18.05;88.04;100249.66;1781035;80;20990;-91
2021/08/22 07:18:37;;;;;;;9.13;7.85;;;;;;;18.14;87.35;100242.52;1781065;80;21548;-92
2021/08/22 07:21:04;;;;;;;9.35;7.95;;;;;;;18.28;88.11;100236.04;1781096;80;21015;-91
2021/08/22 07:23:31;;;;;;;10.30;7.90;;;;;;;18.28;88.11;100236.04;1759367;80;21462;-92
2021/08/22 07:25:57;;;;;;;8.15;7.08;;;;;;;18.37;88.16;100239.58;1780677;80;21019;-91
2021/08/22 07:28:23;;;;;;;10.93;7.58;;;;;;;18.45;87.58;100244.92;1780841;80;20952;-92
2021/08/22 07:30:49;;;;;;;8.23;7.03;;;;;;;18.53;87.32;100245.96;1781035;80;20999;-91
2021/08/22 07:33:15;;;;;;;9.45;6.22;;;;;;;18.59;86.33;100246.14;1780971;80;21046;-92
2021/08/22 07:35:41;;;;;;;9.85;6.05;;;;;;;18.66;85.72;100249.81;1781057;80;21006;-92
2021/08/22 07:38:07;;;;;;;7.83;6.10;;;;;;;18.73;85.40;100252.69;1780858;80;21003;-91
2021/08/22 07:40:33;;;;;;;7.40;6.17;;;;;;;18.80;85.24;100250.19;1781157;80;21319;-93
2021/08/22 07:42:59;;;;;;;7.87;6.28;;;;;;;18.89;85.17;100253.20;1781025;80;20987;-93
2021/08/22 07:45:25;;;;;;;6.70;6.10;;;;;;;18.96;85.28;100256.88;1780935;80;21007;-94
2021/08/22 07:47:51;;;;;;;6.40;5.58;;;;;;;19.06;84.73;100256.20;1781114;80;21528;-92
2021/08/22 07:50:17;;;;;;;6.33;5.40;;;;;;;19.14;84.44;100258.85;1781307;80;21039;-92
2021/08/22 07:52:43;;;;;;;8.60;5.40;;;;;;;19.21;84.41;100247.80;1781289;80;21561;-94
2021/08/22 07:55:11;;;;;;;5.97;5.03;;;;;;;19.30;83.69;100255.33;1781399;80;21031;-92
2021/08/22 07:57:38;;;;;;;6.03;5.28;;;;;;;19.37;83.40;100252.81;1780881;80;21071;-92
2021/08/22 08:00:05;;;;;;;6.12;5.20;;;;;;;19.43;82.84;100250.29;1780810;80;21047;-94
2021/08/22 08:02:31;;;;;;;6.15;5.20;;;;;;;19.52;82.77;100253.80;1781152;80;20987;-93
2021/08/22 08:04:57;;;;;;;6.20;4.95;;;;;;;19.63;82.82;100256.12;1781306;80;20956;-92
2021/08/22 08:07:23;;;;;;;5.78;5.17;;;;;;;19.73;82.34;100250.57;1781138;80;21040;-92
2021/08/22 08:09:49;;;;;;;4.97;4.47;;;;;;;19.84;81.84;100250.22;1781188;80;21007;-92
2021/08/22 08:12:14;;;;;;;4.37;3.90;;;;;;;19.96;81.35;100247.97;1781009;80;21019;-93
2021/08/22 08:14:41;;;;;;;4.97;4.03;;;;;;;20.09;80.46;100250.92;1788458;78;21512;-92
2021/08/22 08:17:08;;;;;;;4.55;4.03;;;;;;;20.22;80.51;100249.53;1814763;79;21494;-93
2021/08/22 08:19:34;;;;;;;5.95;5.00;;;;;;;20.33;79.60;100251.80;1815041;79;21024;-94
2021/08/22 08:22:00;;;;;;;4.78;4.17;;;;;;;20.47;78.16;100251.06;1814452;79;21523;-92
2021/08/22 08:24:26;;;;;;;5.00;4.10;;;;;;;20.61;78.59;100254.34;1795526;78;20953;-92
2021/08/22 08:26:52;;;;;;;6.30;4.28;;;;;;;20.73;78.63;100253.91;1775847;81;20961;-91
2021/08/22 08:29:18;;;;;;;4.10;3.70;;;;;;;20.83;78.23;100251.84;1775989;81;20965;-94
2021/08/22 08:31:44;;;;;;;5.55;3.58;;;;;;;20.97;78.27;100248.37;1792156;79;20978;-92
2021/08/22 08:34:09;;;;;;;5.58;3.95;;;;;;;21.13;76.54;100245.23;1793082;79;21411;-91
2021/08/22 08:36:36;;;;;;;4.62;4.15;;;;;;;21.28;77.76;100243.38;1775942;80;20957;-92
2021/08/22 08:39:02;;;;;;;5.15;4.28;;;;;;;21.43;76.86;100238.91;1776202;80;21451;-93
2021/08/22 08:41:28;;;;;;;4.65;4.25;;;;;;;21.56;77.81;100237.44;1776197;80;20945;-91
2021/08/22 08:43:55;;;;;;;6.37;3.90;;;;;;;21.67;77.26;100236.45;1778439;79;21031;-90
2021/08/22 08:46:48;;;;;;;5.45;4.75;;;;;;;21.80;75.97;100226.91;1806693;79;22025;-91
2021/08/22 08:49:47;;;;;;;4.33;3.92;;;;;;;21.94;75.01;100230.91;1807280;79;21490;-90
2021/08/22 08:52:37;;;;;;;6.75;3.75;;;;;;;22.08;74.71;100231.06;1802858;79;21029;-88
2021/08/22 08:55:29;;;;;;;4.80;3.37;;;;;;;22.22;74.48;100231.59;1772688;79;21003;-93
2021/08/22 08:57:57;;;;;;;4.35;3.83;;;;;;;22.39;73.58;100236.22;1808649;79;20966;-93
2021/08/22 09:00:38;;;;;;;4.60;3.80;;;;;;;22.52;73.07;100234.19;1805896;79;21029;-91
2021/08/22 09:03:06;;;;;;;5.40;3.83;;;;;;;22.57;72.72;100232.56;1801082;79;20949;-89
2021/08/22 09:05:40;;;;;;;3.85;3.45;;;;;;;22.60;72.99;100233.53;1788053;80;21471;-89
2021/08/22 09:08:48;;;;;;;5.92;3.72;;;;;;;22.64;72.32;100228.11;1776777;80;20981;-93
2021/08/22 09:12:10;;;;;;;6.25;3.87;;;;;;;22.70;72.11;100224.66;1777729;80;21013;-95
2021/08/22 09:14:52;;;;;;;3.77;3.42;;;;;;;;;;1788477;80;20992;-90
2021/08/22 09:18:02;;;;;;;6.22;3.87;;;;;;;23.06;72.15;100226.41;1753079;80;20973;-91
2021/08/22 09:20:59;;;;;;;5.28;3.20;;;;;;;23.26;70.58;100218.48;1788208;80;21045;-89
2021/08/22 09:24:19;;;;;;;4.33;3.70;;;;;;;23.45;69.91;100214.27;1787919;80;21052;-91
2021/08/22 09:27:37;;;;;;;4.97;3.72;;;;;;;23.61;70.20;100211.25;1788062;80;21029;-93
2021/08/22 09:30:58;;;;;;;7.05;3.70;;;;;;;23.78;70.08;100213.64;1788164;80;21052;-92
2021/08/22 09:34:22;;;;;;;5.00;3.30;;;;;;;23.98;69.54;100212.38;1787826;80;21032;-93
2021/08/22 09:37:11;;;;;;;5.95;3.30;;;;;;;24.14;68.65;100219.28;1788225;79;21032;-92
2021/08/22 09:40:26;;;;;;;4.00;3.55;;;;;;;24.29;67.90;100211.87;1796237;79;20973;-93
2021/08/22 09:43:32;;;;;;;4.55;3.98;;;;;;;24.40;67.51;100215.83;1775326;79;20989;-92
2021/08/22 09:46:48;;;;;;;4.17;3.77;;;;;;;24.48;67.39;100208.91;1843372;77;20973;-92
2021/08/22 09:50:03;;;;;;;3.92;3.40;;;;;;;24.57;66.69;100214.42;1789650;78;21022;-93
2021/08/22 09:53:17;;;;;;;3.72;3.40;;;;;;;24.64;66.44;100207.16;1776410;79;21031;-93
2021/08/22 09:56:40;;;;;;;5.20;3.35;;;;;;;24.70;66.20;100213.09;1775370;80;20994;-94
2021/08/22 09:59:20;;;;;;;3.95;2.95;;;;;;;24.79;66.65;100203.77;1775944;80;20986;-94
2021/08/22 10:02:20;;;;;;;22.90;5.55;;;;;;;24.93;65.96;100203.77;1750954;78;21553;-94
2021/08/22 10:05:32;;;;;;;4.08;3.20;;;;;;;25.05;65.99;100198.05;1814300;79;21000;-91
2021/08/22 10:08:25;;;;;;;4.05;3.65;;;;;;;25.18;65.83;100194.02;1814468;78;21041;-91
2021/08/22 10:10:57;;;;;;;4.60;3.25;;;;;;;25.30;65.22;100192.84;1814375;78;20985;-90
2021/08/22 10:13:23;;;;;;;4.12;3.02;;;;;;;25.42;62.93;100184.93;1814491;79;20993;-94
2021/08/22 10:15:51;;;;;;;4.65;3.05;;;;;;;25.49;63.56;100189.27;1812740;78;20972;-94
2021/08/22 10:18:25;;;;;;;3.70;3.08;;;;;;;25.61;62.35;100187.27;1782193;78;21015;-94
2021/08/22 10:20:54;;;;;;;5.90;3.58;;;;;;;25.72;63.75;100180.66;1818049;79;21008;-92
2021/08/22 10:23:38;;;;;;;4.37;2.87;;;;;;;25.85;62.97;100178.46;1817352;78;21017;-94
2021/08/22 10:26:05;;;;;;;3.98;3.62;;;;;;;25.95;61.74;100182.05;1794242;79;21010;-95
2021/08/22 10:29:01;;;;;;;7.08;3.15;;;;;;;26.05;62.93;100176.19;1814018;79;21027;-93
2021/08/22 10:32:03;;;;;;;5.35;2.90;;;;;;;26.14;61.82;100174.36;1803371;79;21024;-90
2021/08/22 10:34:31;;;;;;;3.92;2.92;;;;;;;26.24;62.20;100173.06;1779430;80;21513;-93
2021/08/22 10:36:58;;;;;;;3.47;2.90;;;;;;;26.35;60.52;100171.00;1804504;79;21003;-93
2021/08/22 10:39:27;;;;;;;3.90;2.55;;;;;;;26.37;61.03;100172.45;1814238;78;21003;-82
2021/08/22 10:42:19;;;;;;;4.60;3.20;;;;;;;26.40;60.09;100169.84;1814130;79;20977;-86
2021/08/22 10:44:47;;;;;;;2.62;2.40;;;;;;;26.37;59.50;100168.92;1814167;79;21466;-92
2021/08/22 10:47:16;;;;;;;3.30;2.92;;;;;;;26.32;58.00;100164.15;1787674;79;21033;-88
2021/08/22 10:49:57;;;;;;;4.28;2.67;;;;;;;26.26;58.95;100166.90;1804012;79;21456;-93
2021/08/22 10:52:32;;;;;;;2.92;2.62;;;;;;;26.18;58.84;100160.70;1779090;79;20983;-92
2021/08/22 10:55:20;;;;;;;2.65;2.45;;;;;;;26.13;58.86;100162.42;1775903;80;20983;-90
2021/08/22 10:57:50;;;;;;;2.45;2.25;;;;;;;26.10;58.48;100168.27;1775464;80;21010;-92
2021/08/22 11:00:29;;;;;;;3.92;2.35;;;;;;;26.06;58.58;100161.61;1775125;79;20962;-92
2021/08/22 11:03:04;;;;;;;3.10;2.58;;;;;;;26.06;58.44;100158.41;1784010;79;21009;-84
2021/08/22 11:05:35;;;;;;;3.30;2.15;;;;;;;26.08;58.13;100160.36;1810067;78;20946;-93
2021/08/22 11:08:20;;;;;;;2.95;2.50;;;;;;;26.11;57.95;100153.69;1819453;78;20990;-89
2021/08/22 11:11:01;;;;;;;2.67;2.42;;;;;;;26.20;57.98;100151.05;1782377;80;21108;-91
2021/08/22 11:13:41;;;;;;;2.60;2.10;;;;;;;26.26;57.79;100149.32;1794815;79;21262;-85
2021/08/22 11:16:07;;;;;;;2.00;1.80;;;;;;;26.31;57.23;100148.16;1815174;78;20989;-93
2021/08/22 11:18:37;;;;;;;2.45;2.25;;;;;;;26.34;56.80;100136.90;1824379;78;21005;-93
2021/08/22 11:21:04;;;;;;;2.08;1.80;;;;;;;26.41;57.42;100137.14;1814359;79;21216;-92
2021/08/22 11:23:30;;;;;;;3.02;2.50;;;;;;;26.49;57.38;100133.39;1795729;79;21497;-93
2021/08/22 11:26:08;;;;;;;2.40;2.20;;;;;;;26.52;56.74;100132.95;1780926;80;20984;-91
2021/08/22 11:28:36;;;;;;;3.85;2.10;;;;;;;26.49;56.65;100132.53;1818614;78;21045;-93
2021/08/22 11:31:11;;;;;;;2.00;1.80;;;;;;;26.43;55.61;100131.53;1816658;78;21068;-93
2021/08/22 11:33:37;;;;;;;2.02;1.75;;;;;;;26.38;55.82;100132.70;1837738;78;20996;-93
2021/08/22 11:36:04;;;;;;;2.85;2.40;;;;;;;26.31;55.34;100131.39;1821854;78;20921;-93
2021/08/22 11:38:31;;;;;;;4.40;2.47;;;;;;;26.27;56.22;100129.36;1814480;79;20942;-93